Time;durP1;ratioP1;P1;durP2;ratioP2;P2;SDS_P1;SDS_P2;PMS_P1;PMS_P2;Temp;Humidity;BMP_temperature;BMP_pressure;BME280_temperature;BME280_humidity;BME280_pressure;Samples;Min_cycle;Max_cycle;Signal;HPM_P1;HPM_P2
2022/09/30 00:01:02;;;;;;;12.98;9.15;;;;;;;;;;4947361;28;20049;-62
2022/09/30 00:03:28;;;;;;;13.10;9.43;;;;;;;;;;4948320;28;20126;-60
2022/09/30 00:05:57;;;;;;;12.10;9.13;;;;;;;;;;4948272;28;20543;-62
2022/09/30 00:08:22;;;;;;;8.80;7.80;;;;;;;;;;4953142;28;20310;-61
2022/09/30 00:10:56;;;;;;;10.43;7.78;;;;;;;;;;4950938;28;20026;-61
2022/09/30 00:13:22;;;;;;;9.23;7.53;;;;;;;;;;4951818;28;20498;-61
2022/09/30 00:15:47;;;;;;;8.20;7.10;;;;;;;;;;4947591;28;20251;-61
2022/09/30 00:18:12;;;;;;;9.27;6.72;;;;;;;;;;4949183;28;20512;-61
2022/09/30 00:20:37;;;;;;;8.60;7.60;;;;;;;;;;4949312;28;20018;-61
2022/09/30 00:23:02;;;;;;;10.20;7.07;;;;;;;;;;4947820;28;20080;-60
2022/09/30 00:25:28;;;;;;;8.02;6.65;;;;;;;;;;4953901;28;20031;-60
2022/09/30 00:27:53;;;;;;;6.63;5.97;;;;;;;;;;4953045;28;20473;-62
2022/09/30 00:30:18;;;;;;;10.20;7.57;;;;;;;;;;4953220;28;20122;-60
2022/09/30 00:32:45;;;;;;;9.52;7.65;;;;;;;;;;4951309;28;20074;-60
2022/09/30 00:35:10;;;;;;;9.20;6.95;;;;;;;;;;4953474;28;20027;-63
2022/09/30 00:37:35;;;;;;;9.13;7.15;;;;;;;;;;4950101;28;20046;-61
2022/09/30 00:40:03;;;;;;;7.28;6.57;;;;;;;;;;4947054;28;20409;-62
2022/09/30 00:42:29;;;;;;;8.73;7.13;;;;;;;;;;4947157;28;20073;-60
2022/09/30 00:44:56;;;;;;;10.32;7.10;;;;;;;;;;4950257;28;20288;-61
2022/09/30 00:47:21;;;;;;;7.65;6.85;;;;;;;;;;4952469;28;20026;-60
2022/09/30 00:49:46;;;;;;;7.10;6.40;;;;;;;;;;4953712;28;20393;-62
2022/09/30 00:52:12;;;;;;;6.85;6.15;;;;;;;;;;4953357;28;20039;-60
2022/09/30 00:54:37;;;;;;;8.15;6.57;;;;;;;;;;4953938;28;20074;-60
2022/09/30 00:57:03;;;;;;;7.60;6.80;;;;;;;;;;4952022;28;20030;-60
2022/09/30 00:59:32;;;;;;;6.72;6.03;;;;;;;;;;4948346;28;20595;-60
2022/09/30 01:01:58;;;;;;;6.10;5.30;;;;;;;;;;4945990;28;20323;-60
2022/09/30 01:04:23;;;;;;;7.43;6.15;;;;;;;;;;4947921;28;20093;-60
2022/09/30 01:06:49;;;;;;;6.10;5.57;;;;;;;;;;4951959;28;20556;-61
2022/09/30 01:09:15;;;;;;;6.28;5.53;;;;;;;;;;4952167;28;20470;-61
2022/09/30 01:11:40;;;;;;;6.72;5.65;;;;;;;;;;4978127;28;20035;-62
2022/09/30 01:14:16;;;;;;;7.53;5.85;;;;;;;;;;4950920;28;20174;-60
2022/09/30 01:16:41;;;;;;;6.20;5.60;;;;;;;;;;4950100;28;20502;-60
2022/09/30 01:19:19;;;;;;;7.72;6.30;;;;;;;;;;4952201;28;20098;-59
2022/09/30 01:22:03;;;;;;;6.65;6.00;;;;;;;;;;4951064;28;20546;-62
2022/09/30 01:24:37;;;;;;;7.60;6.35;;;;;;;;;;4952528;28;20031;-62
2022/09/30 01:27:14;;;;;;;9.02;6.32;;;;;;;;;;4949046;28;20042;-60
2022/09/30 01:29:40;;;;;;;7.15;6.45;;;;;;;;;;4952765;28;20253;-59
2022/09/30 01:32:17;;;;;;;7.03;6.28;;;;;;;;;;4951868;28;20645;-60
2022/09/30 01:35:03;;;;;;;9.82;6.53;;;;;;;;;;4947669;28;20459;-60
2022/09/30 01:37:31;;;;;;;9.00;7.07;;;;;;;;;;4945682;28;20603;-61
2022/09/30 01:40:02;;;;;;;7.72;7.03;;;;;;;;;;4952350;28;20035;-60
2022/09/30 01:42:35;;;;;;;9.40;8.18;;;;;;;;;;4950579;28;20541;-59
2022/09/30 01:45:06;;;;;;;9.50;7.03;;;;;;;;;;4951321;28;20027;-59
2022/09/30 01:47:38;;;;;;;11.48;8.02;;;;;;;;;;4945760;28;20027;-61
2022/09/30 01:50:12;;;;;;;9.68;7.57;;;;;;;;;;4949026;28;20496;-60
2022/09/30 01:52:43;;;;;;;10.43;7.53;;;;;;;;;;4951669;28;20036;-60
2022/09/30 01:55:21;;;;;;;7.18;6.30;;;;;;;;;;4951924;28;20273;-60
2022/09/30 01:57:53;;;;;;;8.32;7.43;;;;;;;;;;4952257;28;20039;-61
2022/09/30 02:00:20;;;;;;;7.93;7.07;;;;;;;;;;4952089;28;20110;-63
2022/09/30 02:02:47;;;;;;;8.25;7.18;;;;;;;;;;4952557;28;20517;-60
2022/09/30 02:05:15;;;;;;;8.85;7.25;;;;;;;;;;4950020;28;20437;-60
2022/09/30 02:07:49;;;;;;;8.70;7.78;;;;;;;;;;4981973;28;20030;-60
2022/09/30 02:10:16;;;;;;;7.47;6.75;;;;;;;;;;4956144;28;20027;-61
2022/09/30 02:12:47;;;;;;;10.07;7.35;;;;;;;;;;4955159;28;20098;-62
2022/09/30 02:15:15;;;;;;;8.43;6.30;;;;;;;;;;4957239;28;20114;-62
2022/09/30 02:17:45;;;;;;;9.10;6.82;;;;;;;;;;4956239;28;20023;-61
2022/09/30 02:20:18;;;;;;;11.07;7.18;;;;;;;;;;4956771;28;20042;-60
2022/09/30 02:22:47;;;;;;;7.90;7.10;;;;;;;;;;4954616;28;20319;-61
2022/09/30 02:25:20;;;;;;;8.73;7.82;;;;;;;;;;4956284;28;20027;-63
2022/09/30 02:27:51;;;;;;;8.35;6.93;;;;;;;;;;4954080;28;20525;-62
2022/09/30 02:30:17;;;;;;;8.65;7.70;;;;;;;;;;4954888;28;20754;-61
2022/09/30 02:32:49;;;;;;;7.82;7.03;;;;;;;;;;4949699;28;20035;-63
2022/09/30 02:35:43;;;;;;;8.95;7.28;;;;;;;;;;4953928;28;20034;-60
2022/09/30 02:38:15;;;;;;;8.57;6.80;;;;;;;;;;4961263;28;20047;-61
2022/09/30 02:40:40;;;;;;;8.65;6.78;;;;;;;;;;4962859;28;20027;-63
2022/09/30 02:43:05;;;;;;;11.10;6.97;;;;;;;;;;4956601;28;20214;-62
2022/09/30 02:45:37;;;;;;;7.30;6.55;;;;;;;;;;4958322;28;20547;-61
2022/09/30 02:48:03;;;;;;;10.55;7.53;;;;;;;;;;4961002;28;20143;-61
2022/09/30 02:50:31;;;;;;;7.78;6.97;;;;;;;;;;4962474;28;20444;-62
2022/09/30 02:53:05;;;;;;;10.10;6.68;;;;;;;;;;4960865;28;20046;-62
2022/09/30 02:55:34;;;;;;;10.23;7.35;;;;;;;;;;4962203;28;20383;-62
2022/09/30 02:58:05;;;;;;;9.50;7.32;;;;;;;;;;4961264;28;20031;-60
2022/09/30 03:00:30;;;;;;;7.72;6.50;;;;;;;;;;4957069;28;20030;-62
2022/09/30 03:02:58;;;;;;;11.43;7.20;;;;;;;;;;4956289;28;20097;-61
2022/09/30 03:05:23;;;;;;;9.70;7.80;;;;;;;;;;4954984;28;20698;-63
2022/09/30 03:07:48;;;;;;;8.63;7.30;;;;;;;;;;4977042;28;20549;-60
2022/09/30 03:10:14;;;;;;;8.07;7.28;;;;;;;;;;4961516;28;20038;-60
2022/09/30 03:12:45;;;;;;;8.80;7.25;;;;;;;;;;4961698;28;20042;-61
2022/09/30 03:15:14;;;;;;;9.30;7.60;;;;;;;;;;4956732;28;20031;-61
2022/09/30 03:17:39;;;;;;;12.48;9.75;;;;;;;;;;4953760;28;20023;-63
2022/09/30 03:20:07;;;;;;;12.70;9.95;;;;;;;;;;4954074;28;20102;-58
2022/09/30 03:22:47;;;;;;;12.80;11.50;;;;;;;;;;4953798;28;20039;-58
2022/09/30 03:25:26;;;;;;;12.38;9.82;;;;;;;;;;4954840;28;20059;-58
2022/09/30 03:28:10;;;;;;;10.82;8.90;;;;;;;;;;4955378;28;20082;-57
2022/09/30 03:30:39;;;;;;;12.27;9.10;;;;;;;;;;4954316;28;20031;-56
2022/09/30 03:33:16;;;;;;;10.27;8.63;;;;;;;;;;4954732;28;20089;-58
2022/09/30 03:35:46;;;;;;;10.68;8.18;;;;;;;;;;4955211;28;20027;-55
2022/09/30 03:38:31;;;;;;;13.73;8.15;;;;;;;;;;4952797;28;20023;-58
2022/09/30 03:41:10;;;;;;;14.02;8.52;;;;;;;;;;4948683;28;20089;-58
2022/09/30 03:43:48;;;;;;;9.20;8.10;;;;;;;;;;4956107;28;20031;-58
2022/09/30 03:46:22;;;;;;;9.90;7.80;;;;;;;;;;4953633;28;20022;-57
2022/09/30 03:48:49;;;;;;;11.05;7.60;;;;;;;;;;4948350;28;20133;-58
2022/09/30 03:51:15;;;;;;;23.08;14.35;;;;;;;;;;4962478;28;20038;-57
2022/09/30 03:53:41;;;;;;;16.02;11.88;;;;;;;;;;4949449;28;20043;-59
2022/09/30 03:56:06;;;;;;;19.75;13.88;;;;;;;;;;4961625;28;20031;-57
2022/09/30 03:58:33;;;;;;;25.60;17.25;;;;;;;;;;4951189;28;20407;-56
2022/09/30 04:00:58;;;;;;;12.52;9.32;;;;;;;;;;4952209;28;20332;-57
2022/09/30 04:03:25;;;;;;;10.73;8.15;;;;;;;;;;4947499;28;20425;-58
2022/09/30 04:05:50;;;;;;;10.98;7.10;;;;;;;;;;4950475;28;20051;-59
2022/09/30 04:08:15;;;;;;;10.32;7.72;;;;;;;;;;4955943;28;20150;-56
2022/09/30 04:10:42;;;;;;;8.25;6.93;;;;;;;;;;4954506;28;20373;-57
2022/09/30 04:13:08;;;;;;;8.27;6.57;;;;;;;;;;4956449;28;20035;-55
2022/09/30 04:15:34;;;;;;;9.68;7.22;;;;;;;;;;4952219;28;20019;-59
2022/09/30 04:17:59;;;;;;;9.77;7.03;;;;;;;;;;4953557;28;20663;-59
2022/09/30 04:20:24;;;;;;;9.10;7.93;;;;;;;;;;4954198;28;20469;-58
2022/09/30 04:22:49;;;;;;;9.75;7.40;;;;;;;;;;4948911;28;20041;-58
2022/09/30 04:25:15;;;;;;;10.00;7.68;;;;;;;;;;4948154;28;20154;-59
2022/09/30 04:27:40;;;;;;;8.63;7.72;;;;;;;;;;4953115;28;20511;-58
2022/09/30 04:30:07;;;;;;;10.93;7.55;;;;;;;;;;4954589;28;20085;-56
2022/09/30 04:32:33;;;;;;;8.48;7.65;;;;;;;;;;4953311;28;20042;-57
2022/09/30 04:34:58;;;;;;;9.95;7.15;;;;;;;;;;4954643;28;20023;-58
2022/09/30 04:37:23;;;;;;;9.75;7.53;;;;;;;;;;4954179;28;20074;-59
2022/09/30 04:39:48;;;;;;;7.40;6.65;;;;;;;;;;4951202;28;20034;-59
2022/09/30 04:42:14;;;;;;;9.20;7.97;;;;;;;;;;4946909;28;20074;-57
2022/09/30 04:44:39;;;;;;;8.63;7.43;;;;;;;;;;4950742;28;20030;-58
2022/09/30 04:47:05;;;;;;;8.98;7.78;;;;;;;;;;4947979;28;20465;-58
2022/09/30 04:49:30;;;;;;;10.50;8.07;;;;;;;;;;4947964;28;20030;-52
2022/09/30 04:51:56;;;;;;;8.50;7.63;;;;;;;;;;4953441;28;20035;-56
2022/09/30 04:54:21;;;;;;;7.72;7.00;;;;;;;;;;4950891;28;20054;-59
2022/09/30 04:56:46;;;;;;;8.90;6.97;;;;;;;;;;4946995;28;20034;-59
2022/09/30 04:59:11;;;;;;;8.00;6.63;;;;;;;;;;4981029;28;20473;-55
2022/09/30 05:01:38;;;;;;;8.27;6.95;;;;;;;;;;4951579;28;20027;-57
2022/09/30 05:04:03;;;;;;;8.55;7.15;;;;;;;;;;4953206;28;20135;-59
2022/09/30 05:06:29;;;;;;;7.47;6.78;;;;;;;;;;4953164;28;20151;-60
2022/09/30 05:08:54;;;;;;;8.65;7.80;;;;;;;;;;4952502;28;20059;-55
2022/09/30 05:11:20;;;;;;;12.15;9.15;;;;;;;;;;4952079;28;20087;-59
2022/09/30 05:13:46;;;;;;;10.68;8.48;;;;;;;;;;4951184;28;20026;-60
2022/09/30 05:16:11;;;;;;;8.88;7.88;;;;;;;;;;4952289;28;20028;-55
2022/09/30 05:18:38;;;;;;;7.72;6.50;;;;;;;;;;4952754;28;20038;-59
2022/09/30 05:21:03;;;;;;;6.72;6.10;;;;;;;;;;4952378;28;20027;-58
2022/09/30 05:23:29;;;;;;;5.90;5.30;;;;;;;;;;4951695;28;20031;-57
2022/09/30 05:25:55;;;;;;;5.78;5.18;;;;;;;;;;4952122;28;20026;-58
2022/09/30 05:28:20;;;;;;;5.88;4.70;;;;;;;;;;4945798;28;20030;-57
2022/09/30 05:30:46;;;;;;;5.53;4.72;;;;;;;;;;4945269;28;20035;-58
2022/09/30 05:33:12;;;;;;;6.63;4.75;;;;;;;;;;4951775;28;20074;-57
2022/09/30 05:35:38;;;;;;;5.40;4.90;;;;;;;;;;4953937;28;20054;-59
2022/09/30 05:38:03;;;;;;;5.50;5.00;;;;;;;;;;4957188;28;20049;-56
2022/09/30 05:40:29;;;;;;;5.90;4.88;;;;;;;;;;4958556;28;20031;-56
2022/09/30 05:42:58;;;;;;;6.43;5.72;;;;;;;;;;4954395;28;20026;-58
2022/09/30 05:45:23;;;;;;;5.20;4.70;;;;;;;;;;4952530;28;20106;-59
2022/09/30 05:47:52;;;;;;;4.28;3.95;;;;;;;;;;4957798;28;20035;-59
2022/09/30 05:50:18;;;;;;;4.07;3.78;;;;;;;;;;4952467;28;20031;-60
2022/09/30 05:52:43;;;;;;;4.28;3.88;;;;;;;;;;4956270;28;20416;-58
2022/09/30 05:55:08;;;;;;;11.73;7.75;;;;;;;;;;4960034;28;20090;-57
2022/09/30 05:57:35;;;;;;;4.72;4.32;;;;;;;;;;4952540;28;20034;-59
2022/09/30 06:00:00;;;;;;;4.82;4.30;;;;;;;;;;4952295;28;20458;-58
2022/09/30 06:02:25;;;;;;;4.35;3.70;;;;;;;;;;4952445;28;20079;-58
2022/09/30 06:04:51;;;;;;;4.75;4.35;;;;;;;;;;4956149;28;20033;-63
2022/09/30 06:07:16;;;;;;;4.65;3.72;;;;;;;;;;4959494;28;20046;-59
2022/09/30 06:09:41;;;;;;;4.40;3.95;;;;;;;;;;4954013;28;20035;-59
2022/09/30 06:12:07;;;;;;;4.43;4.03;;;;;;;;;;4954549;28;20175;-56
2022/09/30 06:14:32;;;;;;;5.60;4.90;;;;;;;;;;4958317;28;20146;-59
2022/09/30 06:16:59;;;;;;;5.28;4.13;;;;;;;;;;4957261;28;20562;-57
2022/09/30 06:19:25;;;;;;;4.57;3.80;;;;;;;;;;4952059;28;20035;-58
2022/09/30 06:21:50;;;;;;;4.78;4.25;;;;;;;;;;4951957;28;20034;-59
2022/09/30 06:24:15;;;;;;;4.35;3.95;;;;;;;;;;4952805;28;20035;-61
2022/09/30 06:26:42;;;;;;;2.78;2.58;;;;;;;;;;4954747;28;20437;-58
2022/09/30 06:29:07;;;;;;;2.92;2.67;;;;;;;;;;4953573;28;20121;-60
2022/09/30 06:31:32;;;;;;;2.70;2.50;;;;;;;;;;4952607;28;20043;-64
2022/09/30 06:33:57;;;;;;;2.60;2.40;;;;;;;;;;4956766;28;20031;-57
2022/09/30 06:36:23;;;;;;;2.60;2.40;;;;;;;;;;4953983;28;20730;-59
2022/09/30 06:38:51;;;;;;;2.30;2.20;;;;;;;;;;4952575;28;20073;-58
2022/09/30 06:41:17;;;;;;;2.47;2.28;;;;;;;;;;4951381;28;20039;-60
2022/09/30 06:43:42;;;;;;;2.15;2.05;;;;;;;;;;4952188;28;20514;-57
2022/09/30 06:46:08;;;;;;;2.88;2.67;;;;;;;;;;4953940;28;20027;-58
2022/09/30 06:48:33;;;;;;;2.28;2.10;;;;;;;;;;4955124;28;20026;-60
2022/09/30 06:50:59;;;;;;;2.80;2.53;;;;;;;;;;4951936;28;20037;-57
2022/09/30 06:53:24;;;;;;;3.03;2.83;;;;;;;;;;4956458;28;20066;-59
2022/09/30 06:55:53;;;;;;;2.38;2.28;;;;;;;;;;4953977;28;20027;-59
2022/09/30 06:58:20;;;;;;;2.75;2.55;;;;;;;;;;4955797;28;20094;-58
2022/09/30 07:00:45;;;;;;;2.63;2.42;;;;;;;;;;4953516;28;20114;-55
2022/09/30 07:03:20;;;;;;;2.80;2.60;;;;;;;;;;4954446;28;20062;-58
2022/09/30 07:05:52;;;;;;;3.17;2.88;;;;;;;;;;4955687;28;20413;-56
2022/09/30 07:08:17;;;;;;;2.65;2.42;;;;;;;;;;4955331;28;20027;-57
2022/09/30 07:10:45;;;;;;;4.75;3.03;;;;;;;;;;4952404;28;20555;-59
2022/09/30 07:13:11;;;;;;;2.90;2.65;;;;;;;;;;4953856;28;20043;-58
2022/09/30 07:15:36;;;;;;;4.95;3.50;;;;;;;;;;4954937;28;20082;-58
2022/09/30 07:18:01;;;;;;;3.70;2.88;;;;;;;;;;4952801;28;20031;-58
2022/09/30 07:20:26;;;;;;;2.72;2.47;;;;;;;;;;4949274;28;20105;-58
2022/09/30 07:22:52;;;;;;;2.58;2.30;;;;;;;;;;4950576;28;20401;-56
2022/09/30 07:25:17;;;;;;;2.58;2.38;;;;;;;;;;4956830;28;20065;-57
2022/09/30 07:27:43;;;;;;;2.20;2.03;;;;;;;;;;4953974;28;20027;-58
2022/09/30 07:30:09;;;;;;;2.60;2.40;;;;;;;;;;4954476;28;20083;-59
2022/09/30 07:32:35;;;;;;;2.78;2.35;;;;;;;;;;4953771;28;20546;-59
2022/09/30 07:35:00;;;;;;;2.95;2.65;;;;;;;;;;4955659;28;20030;-59
2022/09/30 07:37:25;;;;;;;1.83;1.73;;;;;;;;;;4953557;28;20481;-57
2022/09/30 07:39:51;;;;;;;2.60;2.40;;;;;;;;;;4953987;28;20023;-59
2022/09/30 07:42:20;;;;;;;2.22;2.13;;;;;;;;;;4954585;28;20039;-61
2022/09/30 07:44:46;;;;;;;7.28;4.82;;;;;;;;;;4954536;28;20678;-60
2022/09/30 07:47:13;;;;;;;8.13;5.03;;;;;;;;;;4952802;28;20138;-59
2022/09/30 07:49:39;;;;;;;3.97;3.60;;;;;;;;;;4948825;28;20528;-59
2022/09/30 07:52:04;;;;;;;8.00;6.75;;;;;;;;;;4950546;28;20027;-59
2022/09/30 07:54:31;;;;;;;7.80;6.68;;;;;;;;;;4956309;28;20031;-55
2022/09/30 07:56:57;;;;;;;4.60;4.20;;;;;;;;;;4948070;28;20031;-59
2022/09/30 07:59:22;;;;;;;3.90;3.47;;;;;;;;;;4953508;28;20031;-59
2022/09/30 08:01:48;;;;;;;3.65;3.35;;;;;;;;;;4952040;28;20039;-58
2022/09/30 08:04:14;;;;;;;4.45;4.05;;;;;;;;;;4954204;28;20029;-57
2022/09/30 08:21:54;;;;;;;4.90;4.40;;;;;;;;;;4953923;28;20042;-60
2022/09/30 08:30:25;;;;;;;7.68;5.60;;;;;;;;;;4953272;28;20042;-56
2022/09/30 08:32:51;;;;;;;5.40;4.88;;;;;;;;;;4952648;28;20032;-58
2022/09/30 08:35:16;;;;;;;6.57;4.93;;;;;;;;;;4953273;28;20039;-56
2022/09/30 08:37:41;;;;;;;5.40;4.90;;;;;;;;;;4951237;28;20026;-57
2022/09/30 08:40:15;;;;;;;5.05;4.55;;;;;;;;;;4953017;28;20031;-58
2022/09/30 08:42:57;;;;;;;4.88;4.40;;;;;;;;;;4951145;28;20042;-59
2022/09/30 08:45:22;;;;;;;4.82;4.38;;;;;;;;;;4953572;28;20462;-57
2022/09/30 08:47:53;;;;;;;5.72;4.28;;;;;;;;;;4948192;28;20037;-57
2022/09/30 08:50:27;;;;;;;4.95;4.45;;;;;;;;;;4947916;28;20024;-57
2022/09/30 08:53:18;;;;;;;4.95;4.55;;;;;;;;;;4950430;28;20145;-59
2022/09/30 08:55:44;;;;;;;6.03;4.65;;;;;;;;;;4947698;28;20142;-56
2022/09/30 08:58:24;;;;;;;3.90;3.60;;;;;;;;;;4951878;28;20023;-56
2022/09/30 09:00:53;;;;;;;5.70;3.83;;;;;;;;;;4952989;28;20050;-59
2022/09/30 09:03:20;;;;;;;4.93;4.43;;;;;;;;;;4953607;28;20225;-61
2022/09/30 09:05:46;;;;;;;4.82;4.32;;;;;;;;;;4953627;28;20500;-62
2022/09/30 09:08:11;;;;;;;4.65;4.22;;;;;;;;;;4949353;28;20031;-58
2022/09/30 09:10:45;;;;;;;5.95;5.32;;;;;;;;;;4947017;28;20179;-59
2022/09/30 09:13:23;;;;;;;4.07;3.58;;;;;;;;;;4950023;28;20053;-60
2022/09/30 09:16:09;;;;;;;4.43;4.03;;;;;;;;;;4979066;28;20027;-58
2022/09/30 09:18:46;;;;;;;4.63;3.97;;;;;;;;;;4948316;28;20042;-61
2022/09/30 09:21:30;;;;;;;4.75;4.35;;;;;;;;;;4950247;28;20525;-56
2022/09/30 09:23:57;;;;;;;4.15;3.75;;;;;;;;;;4967096;28;20015;-57
2022/09/30 09:26:23;;;;;;;5.03;4.53;;;;;;;;;;4958419;28;20031;-58
2022/09/30 09:28:58;;;;;;;3.60;3.30;;;;;;;;;;4948138;28;20841;-59
2022/09/30 09:31:23;;;;;;;4.88;3.17;;;;;;;;;;4950778;28;20153;-60
2022/09/30 09:33:49;;;;;;;3.13;2.92;;;;;;;;;;4951043;28;20027;-59
2022/09/30 09:36:26;;;;;;;3.08;2.88;;;;;;;;;;4951882;28;20051;-61
2022/09/30 09:38:51;;;;;;;3.78;3.58;;;;;;;;;;4951593;28;20478;-58
2022/09/30 09:41:22;;;;;;;3.58;3.28;;;;;;;;;;4953848;28;20034;-59
2022/09/30 09:43:57;;;;;;;3.45;3.15;;;;;;;;;;4948990;28;20330;-60
2022/09/30 09:46:29;;;;;;;2.78;2.35;;;;;;;;;;4948211;28;20540;-60
2022/09/30 09:49:14;;;;;;;3.10;2.90;;;;;;;;;;4951822;28;20037;-59
2022/09/30 09:51:40;;;;;;;;;;;;;;;;;;4953775;28;20037;-59
2022/09/30 09:54:08;;;;;;;3.00;2.63;;;;;;;;;;4952164;28;19910;-58
2022/09/30 09:56:36;;;;;;;3.28;3.03;;;;;;;;;;4946943;28;20042;-58
2022/09/30 09:59:04;;;;;;;3.03;2.83;;;;;;;;;;4946959;28;20098;-58
2022/09/30 10:01:33;;;;;;;3.20;3.00;;;;;;;;;;4952300;28;20041;-59
2022/09/30 10:04:11;;;;;;;3.35;3.15;;;;;;;;;;4950767;28;20059;-58
2022/09/30 10:06:50;;;;;;;3.75;3.10;;;;;;;;;;4953870;28;20502;-60
2022/09/30 10:09:35;;;;;;;2.80;2.60;;;;;;;;;;4952544;28;20055;-59
2022/09/30 10:12:04;;;;;;;2.35;2.15;;;;;;;;;;4949611;28;20054;-57
2022/09/30 10:14:29;;;;;;;2.50;2.30;;;;;;;;;;4946070;28;20027;-61
2022/09/30 10:16:56;;;;;;;2.10;2.00;;;;;;;;;;4949745;28;20042;-60
2022/09/30 10:19:26;;;;;;;2.30;2.20;;;;;;;;;;4952053;28;20027;-60
2022/09/30 10:22:13;;;;;;;2.92;2.72;;;;;;;;;;4956098;28;20448;-60
2022/09/30 10:24:38;;;;;;;3.30;3.00;;;;;;;;;;4955914;28;20636;-59
2022/09/30 10:27:23;;;;;;;4.95;4.40;;;;;;;;;;4955451;28;20475;-58
2022/09/30 10:29:49;;;;;;;6.40;5.05;;;;;;;;;;4955250;28;20038;-59
2022/09/30 10:32:14;;;;;;;5.85;5.28;;;;;;;;;;4963936;28;20086;-58
2022/09/30 10:34:41;;;;;;;6.63;3.78;;;;;;;;;;4953003;28;20066;-58
2022/09/30 10:37:17;;;;;;;4.90;3.17;;;;;;;;;;4955252;28;20464;-59
2022/09/30 10:39:43;;;;;;;3.10;2.90;;;;;;;;;;4956221;28;20071;-55
2022/09/30 10:42:16;;;;;;;6.30;3.63;;;;;;;;;;4950079;28;20190;-58
2022/09/30 10:44:43;;;;;;;5.00;3.55;;;;;;;;;;4949464;28;20023;-60
2022/09/30 10:47:13;;;;;;;4.03;3.13;;;;;;;;;;4955038;28;20035;-53
2022/09/30 10:49:41;;;;;;;2.55;2.38;;;;;;;;;;4960382;28;20046;-56
2022/09/30 10:52:16;;;;;;;3.63;2.95;;;;;;;;;;4949066;28;20146;-58
2022/09/30 10:54:52;;;;;;;2.47;2.38;;;;;;;;;;4953460;28;20048;-59
2022/09/30 10:57:38;;;;;;;2.40;2.30;;;;;;;;;;4957343;28;20026;-59
2022/09/30 11:00:06;;;;;;;2.78;2.58;;;;;;;;;;4953252;28;20031;-60
2022/09/30 11:02:47;;;;;;;2.55;2.40;;;;;;;;;;4954723;28;20069;-59
2022/09/30 11:05:16;;;;;;;2.50;2.33;;;;;;;;;;4953098;28;20031;-60
2022/09/30 11:07:45;;;;;;;2.25;2.10;;;;;;;;;;4969479;28;20027;-60
2022/09/30 11:10:20;;;;;;;2.20;2.00;;;;;;;;;;4952253;28;20634;-62
2022/09/30 11:12:48;;;;;;;2.00;1.90;;;;;;;;;;4949952;28;20030;-59
2022/09/30 11:15:24;;;;;;;1.95;1.85;;;;;;;;;;4952626;28;20186;-59
2022/09/30 11:17:56;;;;;;;1.90;1.80;;;;;;;;;;4949270;28;20059;-58
2022/09/30 11:20:34;;;;;;;2.13;2.03;;;;;;;;;;4949377;28;20530;-54
2022/09/30 11:23:15;;;;;;;1.95;1.85;;;;;;;;;;4955154;28;20027;-58
2022/09/30 11:25:44;;;;;;;1.75;1.65;;;;;;;;;;4952826;28;20480;-58
2022/09/30 11:28:12;;;;;;;2.00;1.73;;;;;;;;;;4953470;28;20576;-54
2022/09/30 11:30:50;;;;;;;1.95;1.63;;;;;;;;;;4947734;28;20023;-55
2022/09/30 11:33:25;;;;;;;1.80;1.70;;;;;;;;;;4949794;28;20031;-56
2022/09/30 11:35:55;;;;;;;1.75;1.60;;;;;;;;;;4949295;28;20351;-58
2022/09/30 11:38:39;;;;;;;1.85;1.75;;;;;;;;;;4950257;28;20035;-58
2022/09/30 11:41:07;;;;;;;1.50;1.42;;;;;;;;;;4955083;28;20026;-55
2022/09/30 11:43:51;;;;;;;2.05;1.88;;;;;;;;;;4955447;28;20023;-59
2022/09/30 11:46:22;;;;;;;2.40;2.20;;;;;;;;;;4953761;28;20389;-58
2022/09/30 11:49:02;;;;;;;2.30;2.10;;;;;;;;;;4955207;28;20031;-58
2022/09/30 11:51:50;;;;;;;1.90;1.80;;;;;;;;;;4956954;28;20164;-54
2022/09/30 11:54:19;;;;;;;1.90;1.80;;;;;;;;;;4948388;28;20041;-56
2022/09/30 11:57:03;;;;;;;2.20;2.10;;;;;;;;;;4948287;28;20031;-55
2022/09/30 11:59:37;;;;;;;2.30;2.20;;;;;;;;;;4950413;28;20564;-55
2022/09/30 12:02:08;;;;;;;2.30;2.10;;;;;;;;;;4948487;28;20329;-56
2022/09/30 12:04:37;;;;;;;2.45;2.25;;;;;;;;;;4947883;28;20202;-57
2022/09/30 12:07:08;;;;;;;2.30;2.20;;;;;;;;;;4951612;28;20108;-56
2022/09/30 12:09:43;;;;;;;2.13;2.03;;;;;;;;;;4953874;28;20023;-55
2022/09/30 12:12:13;;;;;;;3.35;1.85;;;;;;;;;;4953107;28;20038;-56
2022/09/30 12:14:50;;;;;;;2.33;2.20;;;;;;;;;;4956135;28;20030;-57
2022/09/30 12:17:25;;;;;;;2.47;2.28;;;;;;;;;;4952958;28;20023;-59
2022/09/30 12:19:54;;;;;;;4.78;2.67;;;;;;;;;;4948025;28;20334;-57
2022/09/30 12:22:22;;;;;;;2.85;2.65;;;;;;;;;;4949955;28;20019;-57
2022/09/30 12:24:47;;;;;;;2.97;2.10;;;;;;;;;;4952382;28;20042;-56
2022/09/30 12:27:22;;;;;;;2.28;2.08;;;;;;;;;;4952994;28;20023;-55
2022/09/30 12:32:42;;;;;;;2.58;2.38;;;;;;;;;;4953042;28;20401;-54
2022/09/30 12:35:16;;;;;;;2.38;2.28;;;;;;;;;;4953625;28;20031;-57
2022/09/30 12:37:41;;;;;;;2.75;2.55;;;;;;;;;;4953372;28;20018;-56
2022/09/30 12:40:17;;;;;;;3.55;2.35;;;;;;;;;;4954476;28;20074;-55
2022/09/30 12:42:51;;;;;;;2.70;2.20;;;;;;;;;;4951454;28;20467;-54
2022/09/30 12:45:38;;;;;;;2.10;2.00;;;;;;;;;;4951025;28;20015;-62
2022/09/30 12:48:07;;;;;;;2.60;2.40;;;;;;;;;;4954728;28;20208;-53
2022/09/30 12:50:40;;;;;;;4.65;4.05;;;;;;;;;;4956846;28;20037;-55
2022/09/30 12:53:11;;;;;;;3.20;2.10;;;;;;;;;;4949760;28;20046;-55
2022/09/30 12:55:38;;;;;;;1.92;1.80;;;;;;;;;;4951737;28;20057;-57
2022/09/30 12:58:04;;;;;;;2.42;2.22;;;;;;;;;;4955144;28;20426;-56
2022/09/30 13:00:33;;;;;;;2.50;2.30;;;;;;;;;;4950795;28;20031;-55
2022/09/30 13:03:03;;;;;;;1.75;1.73;;;;;;;;;;4949618;28;20083;-55
2022/09/30 13:05:29;;;;;;;1.67;1.58;;;;;;;;;;4949813;28;20061;-53
2022/09/30 13:08:01;;;;;;;1.80;1.70;;;;;;;;;;4949318;28;20027;-55
2022/09/30 13:10:47;;;;;;;2.05;1.95;;;;;;;;;;4946723;28;20613;-57
2022/09/30 13:13:12;;;;;;;2.50;2.15;;;;;;;;;;4952763;28;20047;-53
2022/09/30 13:15:41;;;;;;;2.00;1.90;;;;;;;;;;4950482;28;20407;-57
2022/09/30 13:18:18;;;;;;;1.92;1.83;;;;;;;;;;4947893;28;20027;-57
2022/09/30 13:21:03;;;;;;;1.92;1.83;;;;;;;;;;4950351;28;20019;-57
2022/09/30 13:23:41;;;;;;;2.75;2.10;;;;;;;;;;4947964;28;20089;-56
2022/09/30 13:26:25;;;;;;;2.25;2.15;;;;;;;;;;4949586;28;20031;-56
2022/09/30 13:28:51;;;;;;;2.30;2.10;;;;;;;;;;4952091;28;20119;-55
2022/09/30 13:31:20;;;;;;;2.00;1.80;;;;;;;;;;4953640;28;20602;-57
2022/09/30 13:34:08;;;;;;;2.38;2.17;;;;;;;;;;4947954;28;20029;-57
2022/09/30 13:36:33;;;;;;;2.88;1.80;;;;;;;;;;4945026;28;20034;-57
2022/09/30 13:39:16;;;;;;;2.33;2.13;;;;;;;;;;4953206;28;20037;-56
2022/09/30 13:41:42;;;;;;;2.42;2.25;;;;;;;;;;4953036;28;20126;-55
2022/09/30 13:44:13;;;;;;;7.38;6.15;;;;;;;;;;4948520;28;20027;-56
2022/09/30 13:46:42;;;;;;;5.38;4.88;;;;;;;;;;4949500;28;20458;-56
2022/09/30 13:49:31;;;;;;;4.28;3.88;;;;;;;;;;4954397;28;20038;-57
2022/09/30 13:51:56;;;;;;;3.55;3.00;;;;;;;;;;4948998;28;20053;-56
2022/09/30 13:54:32;;;;;;;2.28;2.08;;;;;;;;;;4947616;28;20035;-56
2022/09/30 13:56:59;;;;;;;2.40;2.30;;;;;;;;;;4950577;28;20034;-55
2022/09/30 13:59:34;;;;;;;2.50;2.40;;;;;;;;;;4954477;28;20039;-57
2022/09/30 14:02:19;;;;;;;3.38;2.20;;;;;;;;;;4953831;28;20087;-58
2022/09/30 14:04:46;;;;;;;4.00;2.50;;;;;;;;;;4951072;28;20035;-55
2022/09/30 14:07:30;;;;;;;2.50;2.30;;;;;;;;;;4952542;28;20028;-57
2022/09/30 14:10:08;;;;;;;2.50;2.38;;;;;;;;;;4955352;28;20027;-57
2022/09/30 14:12:33;;;;;;;2.83;2.63;;;;;;;;;;4953802;28;20094;-56
2022/09/30 14:15:10;;;;;;;5.47;2.50;;;;;;;;;;4956364;28;20030;-57
2022/09/30 14:17:54;;;;;;;2.13;2.03;;;;;;;;;;4956652;28;20179;-56
2022/09/30 14:20:27;;;;;;;4.60;2.60;;;;;;;;;;4957639;28;20031;-56
2022/09/30 14:22:52;;;;;;;2.50;2.30;;;;;;;;;;4956284;28;20039;-56
2022/09/30 14:25:19;;;;;;;4.45;2.20;;;;;;;;;;4950615;28;20102;-57
2022/09/30 14:27:59;;;;;;;1.90;1.80;;;;;;;;;;4950349;28;20038;-57
2022/09/30 14:30:25;;;;;;;3.08;2.10;;;;;;;;;;4950746;28;20031;-54
2022/09/30 14:33:23;;;;;;;2.28;2.08;;;;;;;;;;4955418;28;20086;-56
2022/09/30 14:35:52;;;;;;;2.20;1.92;;;;;;;;;;4951951;28;20051;-57
2022/09/30 14:38:24;;;;;;;2.63;2.30;;;;;;;;;;4952284;28;20065;-56
2022/09/30 14:40:54;;;;;;;2.20;2.10;;;;;;;;;;4957953;28;20090;-56
2022/09/30 14:43:25;;;;;;;2.78;2.58;;;;;;;;;;4957263;28;20149;-63
2022/09/30 14:45:58;;;;;;;2.95;2.75;;;;;;;;;;4956381;28;20030;-61
2022/09/30 14:48:26;;;;;;;2.92;2.55;;;;;;;;;;4987692;28;20114;-62
2022/09/30 14:50:57;;;;;;;3.38;3.15;;;;;;;;;;4956440;28;20027;-61
2022/09/30 14:53:24;;;;;;;2.47;2.35;;;;;;;;;;4955529;28;20031;-61
2022/09/30 14:55:49;;;;;;;2.33;2.10;;;;;;;;;;4949820;28;20595;-67
2022/09/30 14:58:17;;;;;;;2.80;2.60;;;;;;;;;;4954004;28;20086;-61
2022/09/30 15:00:44;;;;;;;2.55;2.35;;;;;;;;;;4955968;28;20102;-61
2022/09/30 15:03:10;;;;;;;2.65;2.45;;;;;;;;;;4963662;28;20141;-60
2022/09/30 15:05:36;;;;;;;2.63;2.40;;;;;;;;;;4957358;28;20023;-62
2022/09/30 15:08:01;;;;;;;2.50;2.30;;;;;;;;;;4961092;28;20334;-61
2022/09/30 15:10:28;;;;;;;2.90;2.75;;;;;;;;;;4959772;28;20031;-64
2022/09/30 15:12:54;;;;;;;2.97;2.78;;;;;;;;;;4960240;28;20030;-58
2022/09/30 15:15:34;;;;;;;5.80;5.15;;;;;;;;;;4957533;28;20027;-62
2022/09/30 15:18:01;;;;;;;8.63;7.93;;;;;;;;;;4960437;28;20063;-64
2022/09/30 15:20:29;;;;;;;5.35;5.00;;;;;;;;;;4960604;28;20061;-61